Time;durP1;ratioP1;P1;durP2;ratioP2;P2;SDS_P1;SDS_P2;PMS_P1;PMS_P2;Temp;Humidity;BMP_temperature;BMP_pressure;BME280_temperature;BME280_humidity;BME280_pressure;Samples;Min_cycle;Max_cycle;Signal;HPM_P1;HPM_P2
2022/11/30 00:01:59;;;;;;;33.30;17.27;;;7.20;99.90;;;;;;4976010;28;20264;-67
2022/11/30 00:04:24;;;;;;;41.40;19.07;;;7.10;99.90;;;;;;4993415;28;20181;-67
2022/11/30 00:06:55;;;;;;;46.67;17.80;;;7.10;99.90;;;;;;4975916;28;20181;-67
2022/11/30 00:09:21;;;;;;;41.93;19.87;;;7.10;99.90;;;;;;4992927;28;20214;-67
2022/11/30 00:11:46;;;;;;;46.67;19.37;;;7.10;99.90;;;;;;4993237;28;20627;-68
2022/11/30 00:14:12;;;;;;;45.33;21.27;;;7.10;99.90;;;;;;4993018;28;20189;-67
2022/11/30 00:16:37;;;;;;;41.67;18.37;;;7.20;99.90;;;;;;4993108;28;20241;-67
2022/11/30 00:19:03;;;;;;;51.83;19.23;;;7.20;99.90;;;;;;4975528;28;20231;-67
2022/11/30 00:21:29;;;;;;;46.53;20.40;;;7.20;99.90;;;;;;4993136;28;20219;-68
2022/11/30 00:23:54;;;;;;;39.73;19.67;;;7.20;99.90;;;;;;4992858;28;20181;-67
2022/11/30 00:26:21;;;;;;;47.40;18.90;;;7.20;99.90;;;;;;4993123;28;20183;-68
2022/11/30 00:28:47;;;;;;;43.77;20.13;;;7.20;99.90;;;;;;4992595;28;20271;-68
2022/11/30 00:31:15;;;;;;;50.40;19.80;;;7.20;99.90;;;;;;4992789;28;20180;-68
2022/11/30 00:33:41;;;;;;;52.03;20.30;;;7.20;99.90;;;;;;4992747;28;20177;-68
2022/11/30 00:36:15;;;;;;;44.57;19.77;;;7.30;99.90;;;;;;4993104;28;20244;-68
2022/11/30 00:38:41;;;;;;;65.20;21.23;;;7.30;99.90;;;;;;4992667;28;20240;-68
2022/11/30 00:41:07;;;;;;;48.90;20.40;;;7.30;99.90;;;;;;4992650;28;20176;-68
2022/11/30 00:43:33;;;;;;;38.23;19.23;;;7.30;99.90;;;;;;4992413;28;20198;-68
2022/11/30 00:45:59;;;;;;;46.50;19.93;;;7.30;99.90;;;;;;4992453;28;20260;-68
2022/11/30 00:48:24;;;;;;;49.57;18.13;;;7.30;99.90;;;;;;4992445;28;20197;-67
2022/11/30 00:50:50;;;;;;;49.43;21.70;;;7.30;99.90;;;;;;4974866;28;20712;-67
2022/11/30 00:53:17;;;;;;;67.07;21.03;;;7.20;99.90;;;;;;4992558;28;20200;-68
2022/11/30 00:55:43;;;;;;;56.13;22.03;;;7.30;99.90;;;;;;4992398;28;20200;-68
2022/11/30 00:58:09;;;;;;;56.67;20.17;;;7.30;99.90;;;;;;4992375;28;20204;-67
2022/11/30 01:00:35;;;;;;;43.00;16.23;;;7.30;99.90;;;;;;4992374;28;20184;-67
2022/11/30 01:03:01;;;;;;;53.13;18.17;;;7.20;99.90;;;;;;4992577;28;20199;-68
2022/11/30 01:05:28;;;;;;;59.43;21.07;;;7.20;99.90;;;;;;4992306;28;20709;-67
2022/11/30 01:07:53;;;;;;;51.97;22.53;;;7.20;99.90;;;;;;4992186;28;20181;-67
2022/11/30 01:10:21;;;;;;;57.53;21.03;;;7.20;99.90;;;;;;4991784;28;20185;-67
2022/11/30 01:12:47;;;;;;;73.17;23.03;;;7.30;99.90;;;;;;4992252;28;20179;-68
2022/11/30 01:15:13;;;;;;;50.90;21.13;;;7.30;99.90;;;;;;4974121;28;20574;-68
2022/11/30 01:17:38;;;;;;;70.63;20.67;;;7.30;99.90;;;;;;4992167;28;20177;-67
2022/11/30 01:20:06;;;;;;;55.77;21.30;;;7.30;99.90;;;;;;4991652;28;20201;-68
2022/11/30 01:22:32;;;;;;;56.47;19.67;;;7.40;99.90;;;;;;4992128;28;20173;-68
2022/11/30 01:24:58;;;;;;;55.67;19.53;;;7.50;99.90;;;;;;4991937;28;20685;-68
2022/11/30 01:27:23;;;;;;;71.27;21.57;;;7.50;99.90;;;;;;4992206;28;20204;-68
2022/11/30 01:29:49;;;;;;;56.90;19.97;;;7.50;99.90;;;;;;4974459;28;20682;-67
2022/11/30 01:32:14;;;;;;;75.40;22.50;;;7.60;99.90;;;;;;4974689;28;20181;-68
2022/11/30 01:34:40;;;;;;;64.30;20.27;;;7.50;99.90;;;;;;4991755;28;20610;-68
2022/11/30 01:37:06;;;;;;;56.97;21.37;;;7.60;99.90;;;;;;4992019;28;20208;-69
2022/11/30 01:39:31;;;;;;;70.20;21.53;;;7.60;99.90;;;;;;4991646;28;20247;-68
2022/11/30 01:41:57;;;;;;;68.87;22.03;;;7.50;99.90;;;;;;4974489;28;20635;-68
2022/11/30 01:44:25;;;;;;;59.20;19.53;;;7.50;99.90;;;;;;4991535;28;20188;-68
2022/11/30 01:46:57;;;;;;;69.13;19.20;;;7.50;99.90;;;;;;4991937;28;20168;-68
2022/11/30 01:49:55;;;;;;;78.40;21.80;;;7.50;99.90;;;;;;4991471;28;20542;-67
2022/11/30 01:52:31;;;;;;;69.47;23.70;;;7.50;99.90;;;;;;4973922;28;20235;-68
2022/11/30 01:55:13;;;;;;;54.60;19.97;;;7.50;99.90;;;;;;4991593;28;20180;-68
2022/11/30 01:57:45;;;;;;;61.37;23.03;;;7.50;99.90;;;;;;4977560;28;20177;-68
2022/11/30 02:00:13;;;;;;;65.40;19.90;;;7.50;99.90;;;;;;4995280;28;20173;-69
2022/11/30 02:03:12;;;;;;;59.27;21.27;;;7.50;99.90;;;;;;4995755;28;20260;-68
2022/11/30 02:05:39;;;;;;;71.40;20.93;;;7.50;99.90;;;;;;4972260;28;20196;-68
2022/11/30 02:08:06;;;;;;;57.10;19.50;;;7.50;99.90;;;;;;4995742;28;20200;-68
2022/11/30 02:10:36;;;;;;;62.37;20.33;;;7.50;99.90;;;;;;4995010;28;20220;-67
2022/11/30 02:13:38;;;;;;;62.33;21.30;;;7.40;99.90;;;;;;4978131;28;20271;-69
2022/11/30 02:16:28;;;;;;;50.93;20.80;;;7.50;99.90;;;;;;4977693;28;20204;-67
2022/11/30 02:19:26;;;;;;;40.60;17.73;;;7.50;99.90;;;;;;4995390;28;20346;-68
2022/11/30 02:21:56;;;;;;;52.57;18.50;;;7.50;99.90;;;;;;4970535;28;20193;-68
2022/11/30 02:24:52;;;;;;;53.83;18.83;;;7.50;99.90;;;;;;4978680;28;20709;-68
2022/11/30 02:27:57;;;;;;;43.57;16.77;;;7.50;99.90;;;;;;4995470;28;20177;-68
2022/11/30 02:30:24;;;;;;;32.30;15.13;;;7.60;99.90;;;;;;4994531;28;20194;-69
2022/11/30 02:32:56;;;;;;;49.33;16.90;;;7.60;99.90;;;;;;4980562;28;20181;-69
2022/11/30 02:35:26;;;;;;;41.53;18.00;;;7.60;99.90;;;;;;4975873;28;20201;-69
2022/11/30 02:37:53;;;;;;;52.10;16.17;;;7.50;99.90;;;;;;4975657;28;20224;-68
2022/11/30 02:40:20;;;;;;;48.33;18.83;;;7.50;99.90;;;;;;4984519;28;20180;-68
2022/11/30 02:42:47;;;;;;;32.37;15.37;;;7.50;99.90;;;;;;4977562;28;20479;-68
2022/11/30 02:45:13;;;;;;;39.23;18.47;;;7.50;99.90;;;;;;4994921;28;20177;-68
2022/11/30 02:47:54;;;;;;;44.40;17.30;;;7.50;99.90;;;;;;4994828;28;20172;-67
2022/11/30 02:50:19;;;;;;;44.40;19.40;;;7.40;99.90;;;;;;4994699;28;20180;-68
2022/11/30 02:52:45;;;;;;;42.67;18.77;;;7.50;99.90;;;;;;4994783;28;20177;-67
2022/11/30 02:55:15;;;;;;;48.47;19.80;;;7.50;99.90;;;;;;4977105;28;20223;-68
2022/11/30 02:57:41;;;;;;;47.67;18.07;;;7.40;99.90;;;;;;4977165;28;20219;-68
2022/11/30 03:00:09;;;;;;;47.80;17.77;;;7.40;99.90;;;;;;4994159;28;20287;-67
2022/11/30 03:02:35;;;;;;;50.70;18.80;;;7.50;99.90;;;;;;4994511;28;20208;-68
2022/11/30 03:05:01;;;;;;;38.70;17.67;;;7.50;99.90;;;;;;4994915;28;20172;-68
2022/11/30 03:07:26;;;;;;;55.10;22.47;;;7.50;99.90;;;;;;4994095;28;20181;-68
2022/11/30 03:09:52;;;;;;;45.63;20.00;;;7.50;99.90;;;;;;4976734;28;20246;-70
2022/11/30 03:12:18;;;;;;;61.90;21.17;;;7.50;99.90;;;;;;4994139;28;20179;-68
2022/11/30 03:14:43;;;;;;;41.83;18.70;;;7.50;99.90;;;;;;4994431;28;20184;-68
2022/11/30 03:17:09;;;;;;;46.57;18.20;;;7.40;99.90;;;;;;4994061;28;20212;-68
2022/11/30 03:19:34;;;;;;;79.00;20.80;;;7.40;99.90;;;;;;4976461;28;20211;-69
2022/11/30 03:22:00;;;;;;;50.07;19.60;;;7.50;99.90;;;;;;4994325;28;20252;-68
2022/11/30 03:24:25;;;;;;;52.83;18.87;;;7.50;99.90;;;;;;4994010;28;20184;-68
2022/11/30 03:26:51;;;;;;;44.60;20.43;;;7.50;99.90;;;;;;4994218;28;20177;-67
2022/11/30 03:29:17;;;;;;;52.47;21.17;;;7.50;99.90;;;;;;4993627;28;20219;-68
2022/11/30 03:31:43;;;;;;;77.10;21.60;;;7.50;99.90;;;;;;4994227;28;20215;-69
2022/11/30 03:34:08;;;;;;;65.47;24.13;;;7.50;99.90;;;;;;4993780;28;20549;-68
2022/11/30 03:36:34;;;;;;;46.73;19.67;;;7.50;99.90;;;;;;4993842;28;20209;-68
2022/11/30 03:39:00;;;;;;;53.53;18.33;;;7.60;99.90;;;;;;4976140;28;20197;-68
2022/11/30 03:41:25;;;;;;;49.50;19.97;;;7.60;99.90;;;;;;4993726;28;20181;-68
2022/11/30 03:43:51;;;;;;;49.53;19.77;;;7.60;99.90;;;;;;4993637;28;20184;-69
2022/11/30 03:46:16;;;;;;;49.63;21.27;;;7.60;99.90;;;;;;4976471;28;20239;-67
2022/11/30 03:48:42;;;;;;;48.50;20.27;;;7.60;99.90;;;;;;4993292;28;20247;-68
2022/11/30 03:51:09;;;;;;;64.80;21.30;;;7.60;99.90;;;;;;4976025;28;20176;-68
2022/11/30 03:53:35;;;;;;;53.47;21.37;;;7.70;99.90;;;;;;4975983;28;20195;-68
2022/11/30 03:56:04;;;;;;;30.43;15.20;;;7.60;99.90;;;;;;4975985;28;20642;-67
2022/11/30 03:58:30;;;;;;;41.47;19.80;;;7.60;99.90;;;;;;4993197;28;20207;-68
2022/11/30 04:01:00;;;;;;;80.87;21.60;;;7.60;99.90;;;;;;4993227;28;20173;-68
2022/11/30 04:03:25;;;;;;;67.70;21.97;;;7.60;99.90;;;;;;4993440;28;20254;-68
2022/11/30 04:05:51;;;;;;;54.77;21.37;;;7.70;99.90;;;;;;4993692;28;20643;-68
2022/11/30 04:08:16;;;;;;;55.80;20.97;;;7.70;99.90;;;;;;4993218;28;20254;-68
2022/11/30 04:10:44;;;;;;;64.37;20.27;;;7.70;99.90;;;;;;4975022;28;20177;-67
2022/11/30 04:13:10;;;;;;;54.43;21.43;;;7.70;99.90;;;;;;4991999;28;20307;-69
2022/11/30 04:15:35;;;;;;;57.43;20.07;;;7.70;99.90;;;;;;4991921;28;20733;-68
2022/11/30 04:18:01;;;;;;;49.77;20.83;;;7.70;99.90;;;;;;4974649;28;20176;-68
2022/11/30 04:20:27;;;;;;;49.80;19.20;;;7.60;99.90;;;;;;4991510;28;20173;-68
2022/11/30 04:22:52;;;;;;;52.27;18.73;;;7.70;99.90;;;;;;4992812;28;20168;-69
2022/11/30 04:25:18;;;;;;;60.13;20.97;;;7.70;99.90;;;;;;4993159;28;20187;-68
2022/11/30 04:27:46;;;;;;;50.00;20.87;;;7.70;99.90;;;;;;4992935;28;20269;-67
2022/11/30 04:30:13;;;;;;;42.73;20.07;;;7.80;99.90;;;;;;4992568;28;20180;-68
2022/11/30 04:32:38;;;;;;;48.00;19.27;;;7.80;99.90;;;;;;4975451;28;20180;-69
2022/11/30 04:35:04;;;;;;;47.10;20.70;;;7.70;99.90;;;;;;4992692;28;20181;-67
2022/11/30 04:37:30;;;;;;;43.80;18.67;;;7.70;99.90;;;;;;4992837;28;20223;-68
2022/11/30 04:39:55;;;;;;;51.40;18.60;;;7.70;99.90;;;;;;4974691;28;20200;-68
2022/11/30 04:42:21;;;;;;;36.83;19.23;;;7.70;99.90;;;;;;4992727;28;20201;-69
2022/11/30 04:44:46;;;;;;;37.90;19.13;;;7.70;99.90;;;;;;4992413;28;20208;-68
2022/11/30 04:47:12;;;;;;;45.80;19.50;;;7.70;99.90;;;;;;4992663;28;20189;-67
2022/11/30 04:49:38;;;;;;;56.47;20.27;;;7.70;99.90;;;;;;4992123;28;20551;-70
2022/11/30 04:52:03;;;;;;;48.53;17.47;;;7.70;99.90;;;;;;4992499;28;20296;-69
2022/11/30 04:54:29;;;;;;;31.60;16.63;;;7.60;99.90;;;;;;4992299;28;20176;-69
2022/11/30 04:56:55;;;;;;;39.77;18.70;;;7.60;99.90;;;;;;4992321;28;20594;-68
2022/11/30 04:59:20;;;;;;;41.93;18.40;;;7.60;99.90;;;;;;4992164;28;20193;-67
2022/11/30 05:01:46;;;;;;;46.00;17.83;;;7.60;99.90;;;;;;4992198;28;20207;-68
2022/11/30 05:04:11;;;;;;;38.83;17.60;;;7.60;99.90;;;;;;4992194;28;20681;-68
2022/11/30 05:06:37;;;;;;;42.87;18.93;;;7.60;99.90;;;;;;4992379;28;20195;-68
2022/11/30 05:09:02;;;;;;;47.90;22.47;;;7.50;99.90;;;;;;4992435;28;20287;-67
2022/11/30 05:11:28;;;;;;;46.67;20.67;;;7.50;99.90;;;;;;4992230;28;20173;-67
2022/11/30 05:13:54;;;;;;;42.27;20.30;;;7.40;99.90;;;;;;4974376;28;20215;-68
2022/11/30 05:16:19;;;;;;;54.07;20.63;;;7.40;99.90;;;;;;4992106;28;20287;-68
2022/11/30 05:18:45;;;;;;;43.87;19.37;;;7.40;99.90;;;;;;4991750;28;20207;-68
2022/11/30 05:21:10;;;;;;;39.90;17.80;;;7.30;99.90;;;;;;4991958;28;20177;-68
2022/11/30 05:23:36;;;;;;;40.73;19.20;;;7.30;99.90;;;;;;4991906;28;20169;-68
2022/11/30 05:26:02;;;;;;;32.77;18.43;;;7.30;99.90;;;;;;4992204;28;20534;-67
2022/11/30 05:28:28;;;;;;;35.17;17.00;;;7.30;99.90;;;;;;4991766;28;20215;-69
2022/11/30 05:30:53;;;;;;;39.50;18.97;;;7.30;99.90;;;;;;4991662;28;20173;-68
2022/11/30 05:33:19;;;;;;;35.87;16.63;;;7.20;99.90;;;;;;4991998;28;20537;-67
2022/11/30 05:35:44;;;;;;;36.67;18.73;;;7.20;99.90;;;;;;4991671;28;20204;-68
2022/11/30 05:38:10;;;;;;;50.50;20.60;;;7.20;99.90;;;;;;4991942;28;20611;-69
2022/11/30 05:40:36;;;;;;;45.00;20.23;;;7.20;99.90;;;;;;4973570;28;20173;-68
2022/11/30 05:43:03;;;;;;;35.17;21.37;;;7.10;99.90;;;;;;4991900;28;20173;-67
2022/11/30 05:45:29;;;;;;;41.10;18.27;;;7.10;99.90;;;;;;4991825;28;20180;-68
2022/11/30 05:47:54;;;;;;;45.70;20.80;;;7.10;99.90;;;;;;4991581;28;20250;-68
2022/11/30 05:50:20;;;;;;;44.70;19.43;;;7.10;99.90;;;;;;4991663;28;20173;-68
2022/11/30 05:52:46;;;;;;;31.47;15.70;;;7.00;99.90;;;;;;4974157;28;20614;-68
2022/11/30 05:55:11;;;;;;;32.17;16.97;;;7.00;99.90;;;;;;4991814;28;20634;-67
2022/11/30 05:57:38;;;;;;;30.17;17.50;;;7.00;99.90;;;;;;4991580;28;20169;-68
2022/11/30 06:00:05;;;;;;;37.60;19.33;;;7.00;99.90;;;;;;4991535;28;20236;-68
2022/11/30 06:02:31;;;;;;;39.23;17.97;;;7.00;99.90;;;;;;4991444;28;20709;-67
2022/11/30 06:04:56;;;;;;;37.87;18.40;;;7.00;99.90;;;;;;4974374;28;20180;-68
2022/11/30 06:07:22;;;;;;;38.77;17.40;;;7.00;99.90;;;;;;4991598;28;20184;-68
2022/11/30 06:09:47;;;;;;;42.07;18.70;;;7.00;99.90;;;;;;4991291;28;20295;-68
2022/11/30 06:12:13;;;;;;;31.00;15.77;;;7.00;99.90;;;;;;4974262;28;20189;-67
2022/11/30 06:14:39;;;;;;;33.27;16.87;;;7.00;99.90;;;;;;4974135;28;20188;-68
2022/11/30 06:17:04;;;;;;;34.17;18.17;;;6.90;99.90;;;;;;4991583;28;20243;-68
2022/11/30 06:19:30;;;;;;;34.07;16.50;;;6.80;99.90;;;;;;4974165;28;20201;-68
2022/11/30 06:21:56;;;;;;;24.20;15.83;;;;;;;;;;4973655;28;20188;-68
2022/11/30 06:24:21;;;;;;;36.67;17.83;;;6.80;99.90;;;;;;4974267;28;20188;-68
2022/11/30 06:26:47;;;;;;;31.63;17.37;;;6.80;99.90;;;;;;4991403;28;20226;-68
2022/11/30 06:29:12;;;;;;;33.53;18.33;;;6.80;99.90;;;;;;4973655;28;20410;-68
2022/11/30 06:31:38;;;;;;;34.63;18.77;;;6.80;99.90;;;;;;4991419;28;20638;-68
2022/11/30 06:34:04;;;;;;;30.43;17.30;;;6.80;99.90;;;;;;4972807;28;20197;-68
2022/11/30 06:36:30;;;;;;;32.80;18.33;;;6.80;99.90;;;;;;4972196;28;20212;-69
2022/11/30 06:38:56;;;;;;;37.57;17.73;;;6.80;99.90;;;;;;4954785;28;20201;-68
2022/11/30 06:41:22;;;;;;;30.03;16.77;;;6.80;99.90;;;;;;4968930;28;20187;-68
2022/11/30 06:43:47;;;;;;;30.57;16.53;;;6.70;99.90;;;;;;4994679;28;20196;-68
2022/11/30 06:46:13;;;;;;;31.90;17.53;;;6.70;99.90;;;;;;4995038;28;20193;-68
2022/11/30 06:48:39;;;;;;;31.70;17.23;;;6.70;99.90;;;;;;4977218;28;20205;-68
2022/11/30 06:51:06;;;;;;;35.87;18.37;;;6.70;99.90;;;;;;4977004;28;20195;-68
2022/11/30 06:53:32;;;;;;;36.93;17.33;;;6.60;99.90;;;;;;4977494;28;20275;-68
2022/11/30 06:55:57;;;;;;;37.57;16.37;;;6.60;99.90;;;;;;4977736;28;20291;-68
2022/11/30 06:58:23;;;;;;;26.27;18.43;;;6.60;99.90;;;;;;4977303;28;20197;-68
2022/11/30 07:00:48;;;;;;;27.17;15.80;;;6.60;99.90;;;;;;4994181;28;20183;-68
2022/11/30 07:03:14;;;;;;;31.07;17.33;;;6.50;99.90;;;;;;4977343;28;20581;-68
2022/11/30 07:05:45;;;;;;;30.47;17.47;;;6.50;99.90;;;;;;4976942;28;20185;-68
2022/11/30 07:08:13;;;;;;;37.67;18.03;;;6.40;99.90;;;;;;4977584;28;20675;-67
2022/11/30 07:10:43;;;;;;;31.43;18.87;;;6.40;99.90;;;;;;4976397;28;20181;-68
2022/11/30 07:13:13;;;;;;;35.63;15.40;;;6.40;99.90;;;;;;4975574;28;20795;-69
2022/11/30 07:15:40;;;;;;;32.27;16.57;;;6.30;99.90;;;;;;4993960;28;20284;-68
2022/11/30 07:18:06;;;;;;;34.20;16.20;;;6.30;99.90;;;;;;4976884;28;20200;-68
2022/11/30 07:20:31;;;;;;;31.23;17.83;;;6.30;99.90;;;;;;4976051;28;20271;-68
2022/11/30 07:26:04;;;;;;;30.80;16.33;;;6.30;99.90;;;;;;4976748;28;20219;-69
2022/11/30 07:28:27;;;;;;;32.33;16.83;;;6.30;99.90;;;;;;4994884;28;20247;-68
2022/11/30 07:30:52;;;;;;;22.30;15.30;;;6.20;99.90;;;;;;4975913;28;20185;-68
2022/11/30 07:33:18;;;;;;;34.23;19.30;;;6.20;99.90;;;;;;4994242;28;20176;-67
2022/11/30 07:35:43;;;;;;;26.80;17.17;;;6.20;99.90;;;;;;4993434;28;20277;-68
2022/11/30 07:38:09;;;;;;;28.07;17.27;;;6.20;99.90;;;;;;4994072;28;20203;-67
2022/11/30 07:40:34;;;;;;;29.10;19.53;;;6.20;99.90;;;;;;4993204;28;20216;-67
2022/11/30 07:43:00;;;;;;;33.00;18.60;;;6.20;99.90;;;;;;4994001;28;20173;-68
2022/11/30 07:45:25;;;;;;;41.50;19.27;;;6.10;99.90;;;;;;4976491;28;20188;-68
2022/11/30 07:47:51;;;;;;;32.37;18.30;;;6.10;99.90;;;;;;4993654;28;20175;-68
2022/11/30 07:50:16;;;;;;;46.50;20.73;;;6.10;99.90;;;;;;4976101;28;20188;-68
2022/11/30 07:52:42;;;;;;;31.37;17.00;;;6.10;99.90;;;;;;4974060;28;20593;-68
2022/11/30 07:55:08;;;;;;;30.07;17.23;;;6.10;99.90;;;;;;4975175;28;20177;-68
2022/11/30 07:57:34;;;;;;;27.90;17.40;;;6.20;99.90;;;;;;4976102;28;20257;-68
2022/11/30 07:59:59;;;;;;;37.30;16.43;;;6.20;99.90;;;;;;4993363;28;20611;-68
2022/11/30 08:02:25;;;;;;;38.97;19.23;;;6.20;99.90;;;;;;4975803;28;20189;-68
2022/11/30 08:04:51;;;;;;;29.07;17.77;;;6.20;99.90;;;;;;4975921;28;20395;-68
2022/11/30 08:07:16;;;;;;;38.23;16.60;;;6.20;99.90;;;;;;4976110;28;20673;-67
2022/11/30 08:09:43;;;;;;;33.53;17.13;;;6.30;99.90;;;;;;4993172;28;20200;-67
2022/11/30 08:12:09;;;;;;;25.63;14.57;;;6.30;99.90;;;;;;4988860;28;20177;-67
2022/11/30 08:14:35;;;;;;;33.97;18.13;;;6.30;99.90;;;;;;4967663;28;20177;-68
2022/11/30 08:17:00;;;;;;;40.50;17.90;;;6.30;99.90;;;;;;4967744;28;20600;-68
2022/11/30 08:19:26;;;;;;;31.23;17.77;;;6.40;99.90;;;;;;4981417;28;20644;-67
2022/11/30 08:21:51;;;;;;;34.30;19.40;;;6.40;99.90;;;;;;4962269;28;20601;-67
2022/11/30 08:24:18;;;;;;;34.83;18.70;;;6.40;99.90;;;;;;4974026;28;20176;-68
2022/11/30 08:26:44;;;;;;;36.40;17.43;;;6.40;99.90;;;;;;4975094;28;20188;-68
2022/11/30 08:29:10;;;;;;;26.70;17.47;;;6.40;99.90;;;;;;4991367;28;20243;-67
2022/11/30 08:31:36;;;;;;;37.70;19.80;;;6.50;99.90;;;;;;4988237;28;20611;-68
2022/11/30 08:34:04;;;;;;;30.33;18.67;;;6.50;99.90;;;;;;4982312;28;20185;-68
2022/11/30 08:36:31;;;;;;;29.87;17.33;;;6.50;99.90;;;;;;4992310;28;20201;-68
2022/11/30 08:38:58;;;;;;;34.07;18.53;;;6.50;99.90;;;;;;4993585;28;20192;-68
2022/11/30 08:41:24;;;;;;;32.87;20.17;;;6.60;99.90;;;;;;4975149;28;20212;-68
2022/11/30 08:43:51;;;;;;;30.63;16.53;;;6.60;99.90;;;;;;4975077;28;20172;-68
2022/11/30 08:46:18;;;;;;;32.03;17.97;;;6.60;99.90;;;;;;4989193;28;20268;-68
2022/11/30 08:48:44;;;;;;;38.07;18.17;;;6.60;99.90;;;;;;4974459;28;20569;-68
2022/11/30 08:51:11;;;;;;;31.03;17.80;;;6.60;99.90;;;;;;4992460;28;20192;-67
2022/11/30 08:53:37;;;;;;;29.67;15.90;;;6.60;99.90;;;;;;4975031;28;20541;-68
2022/11/30 08:56:07;;;;;;;31.07;18.43;;;6.60;99.90;;;;;;4975230;28;20216;-68
2022/11/30 08:58:35;;;;;;;35.97;23.13;;;6.60;99.90;;;;;;4974842;28;20212;-68
2022/11/30 09:01:09;;;;;;;31.70;18.57;;;6.70;99.90;;;;;;4975044;28;20639;-68
2022/11/30 09:03:34;;;;;;;26.87;17.17;;;6.60;99.90;;;;;;4992449;28;20661;-68
2022/11/30 09:06:09;;;;;;;31.17;18.50;;;6.60;99.90;;;;;;4975111;28;20197;-67
2022/11/30 09:08:35;;;;;;;35.53;16.37;;;6.60;99.90;;;;;;4991819;28;20219;-67
2022/11/30 09:11:16;;;;;;;38.80;20.00;;;6.60;99.90;;;;;;4974556;28;20181;-68
2022/11/30 09:13:42;;;;;;;33.67;19.03;;;6.60;99.90;;;;;;4973394;28;20251;-68
2022/11/30 09:16:09;;;;;;;26.10;15.87;;;6.70;99.90;;;;;;4963572;28;20215;-68
2022/11/30 09:18:35;;;;;;;26.10;16.30;;;6.70;99.90;;;;;;4972504;28;20291;-67
2022/11/30 09:21:07;;;;;;;33.40;18.70;;;6.80;99.90;;;;;;4974549;28;20239;-68
2022/11/30 09:23:34;;;;;;;29.83;18.70;;;6.80;99.90;;;;;;4992152;28;20188;-67
2022/11/30 09:26:01;;;;;;;26.23;16.37;;;6.70;99.90;;;;;;4974537;28;20271;-68
2022/11/30 09:28:29;;;;;;;22.77;15.87;;;6.80;99.90;;;;;;4992194;28;20236;-68
2022/11/30 09:31:03;;;;;;;30.83;17.80;;;6.80;99.90;;;;;;4974030;28;20173;-68
2022/11/30 09:33:29;;;;;;;42.27;19.63;;;6.80;99.90;;;;;;4974588;28;20595;-68
2022/11/30 09:36:00;;;;;;;40.77;19.87;;;6.80;99.90;;;;;;4991971;28;20319;-67
2022/11/30 09:38:26;;;;;;;29.50;16.90;;;6.90;99.90;;;;;;4974559;28;20193;-67
2022/11/30 09:40:55;;;;;;;32.70;16.97;;;6.90;99.90;;;;;;4991489;28;20180;-68
2022/11/30 09:43:50;;;;;;;28.67;17.70;;;6.90;99.90;;;;;;4992111;28;20169;-68
2022/11/30 09:46:16;;;;;;;35.13;18.70;;;6.90;99.90;;;;;;4971208;28;20185;-68
2022/11/30 09:48:57;;;;;;;34.53;17.63;;;7.00;99.90;;;;;;4970932;28;20198;-69
2022/11/30 09:51:29;;;;;;;32.87;17.70;;;7.00;99.90;;;;;;4986284;28;20542;-68
2022/11/30 09:54:00;;;;;;;29.23;18.13;;;7.00;99.90;;;;;;4991406;28;20188;-68
2022/11/30 09:56:36;;;;;;;30.20;19.13;;;7.00;99.90;;;;;;4974213;28;20283;-68
2022/11/30 09:59:02;;;;;;;39.37;20.87;;;7.10;99.90;;;;;;4991763;28;20207;-69
2022/11/30 10:01:27;;;;;;;35.63;19.73;;;7.10;99.90;;;;;;4974309;28;20544;-69
2022/11/30 10:03:53;;;;;;;33.03;19.00;;;7.10;99.90;;;;;;4973830;28;20184;-68
2022/11/30 10:06:35;;;;;;;33.57;18.67;;;7.10;99.90;;;;;;4974465;28;20173;-68
2022/11/30 10:09:06;;;;;;;28.40;17.90;;;7.10;99.90;;;;;;4991619;28;20196;-68
2022/11/30 10:12:07;;;;;;;33.17;19.63;;;7.10;99.90;;;;;;4991507;28;20184;-68
2022/11/30 10:14:36;;;;;;;35.97;19.13;;;7.10;99.90;;;;;;4989438;28;20172;-68
2022/11/30 10:17:04;;;;;;;36.07;19.70;;;7.10;99.90;;;;;;4974184;28;20200;-68
2022/11/30 10:19:48;;;;;;;35.57;20.53;;;7.00;99.90;;;;;;4976251;28;20200;-68
2022/11/30 10:22:34;;;;;;;30.47;19.67;;;7.10;99.90;;;;;;4995089;28;20709;-67
2022/11/30 10:25:25;;;;;;;37.63;21.33;;;7.10;99.90;;;;;;4974367;28;20184;-67
2022/11/30 10:27:53;;;;;;;38.67;20.40;;;7.10;99.90;;;;;;4947210;28;20189;-68
2022/11/30 10:30:24;;;;;;;41.10;19.83;;;7.10;99.90;;;;;;4988109;28;20646;-68
2022/11/30 10:32:57;;;;;;;41.80;20.30;;;7.20;99.90;;;;;;4990523;28;20169;-68
2022/11/30 10:35:43;;;;;;;35.90;19.23;;;7.20;99.90;;;;;;4980702;28;20180;-68
2022/11/30 10:38:26;;;;;;;35.90;20.10;;;7.20;99.90;;;;;;4975753;28;20674;-67
2022/11/30 10:40:56;;;;;;;42.93;22.27;;;7.20;99.90;;;;;;4975402;28;20180;-68
2022/11/30 10:43:50;;;;;;;32.30;18.57;;;7.20;99.90;;;;;;4977759;28;20246;-68
2022/11/30 10:46:31;;;;;;;34.70;19.13;;;7.20;99.90;;;;;;4986685;28;20197;-68
2022/11/30 10:49:03;;;;;;;46.13;19.73;;;7.10;99.90;;;;;;4972977;28;20598;-68
2022/11/30 10:51:31;;;;;;;38.23;19.73;;;7.10;99.90;;;;;;4994757;28;20176;-68
2022/11/30 10:53:57;;;;;;;35.87;19.43;;;7.20;99.90;;;;;;4977305;28;20263;-67
2022/11/30 10:56:24;;;;;;;38.63;19.57;;;7.20;99.90;;;;;;4994724;28;20212;-68
2022/11/30 10:59:02;;;;;;;34.93;20.93;;;7.20;99.90;;;;;;4976965;28;20200;-67
2022/11/30 11:01:31;;;;;;;36.57;19.67;;;7.30;99.90;;;;;;4976781;28;20247;-68
2022/11/30 11:04:24;;;;;;;34.53;18.80;;;7.30;99.90;;;;;;4976982;28;20185;-68
2022/11/30 11:06:56;;;;;;;34.10;18.47;;;7.30;99.90;;;;;;4991519;28;20192;-68
2022/11/30 11:09:23;;;;;;;29.33;16.63;;;7.30;99.90;;;;;;4994465;28;20254;-67
2022/11/30 11:11:54;;;;;;;33.40;20.20;;;7.30;99.90;;;;;;4994734;28;20207;-68
2022/11/30 11:14:22;;;;;;;32.30;19.43;;;7.30;99.90;;;;;;4994719;28;20184;-68
2022/11/30 11:16:51;;;;;;;32.43;19.53;;;7.20;99.90;;;;;;4993749;28;20215;-68
2022/11/30 11:19:24;;;;;;;31.30;19.23;;;7.30;99.90;;;;;;4980896;28;20610;-68
2022/11/30 11:21:51;;;;;;;40.13;19.80;;;7.30;99.90;;;;;;4993981;28;20651;-68
2022/11/30 11:24:18;;;;;;;37.33;20.10;;;7.30;99.90;;;;;;4994199;28;20180;-68
2022/11/30 11:26:52;;;;;;;41.03;21.10;;;7.40;99.90;;;;;;4976424;28;20181;-68
2022/11/30 11:29:56;;;;;;;33.23;21.50;;;7.40;99.90;;;;;;4993306;28;20209;-68
2022/11/30 11:32:26;;;;;;;40.80;20.50;;;7.40;99.90;;;;;;4967839;28;20192;-68
2022/11/30 11:34:52;;;;;;;36.80;21.77;;;7.40;99.90;;;;;;4994153;28;20176;-67
2022/11/30 11:37:25;;;;;;;44.47;20.67;;;7.50;99.90;;;;;;4977183;28;20215;-67
2022/11/30 11:40:14;;;;;;;50.17;22.00;;;7.40;99.90;;;;;;4994145;28;20197;-67
2022/11/30 11:42:51;;;;;;;38.00;21.13;;;7.40;99.90;;;;;;4994129;28;20183;-67
2022/11/30 11:45:24;;;;;;;39.47;21.47;;;7.50;99.90;;;;;;4976817;28;20176;-67
2022/11/30 11:47:59;;;;;;;41.80;20.33;;;7.40;99.90;;;;;;4976703;28;20177;-68
2022/11/30 11:50:36;;;;;;;43.27;20.33;;;7.50;99.90;;;;;;4976654;28;20592;-68
2022/11/30 11:53:09;;;;;;;53.37;21.63;;;7.50;99.90;;;;;;4993647;28;20180;-68
2022/11/30 11:55:35;;;;;;;52.33;23.87;;;7.50;99.90;;;;;;4993593;28;20176;-68
2022/11/30 11:58:02;;;;;;;46.43;22.33;;;7.40;99.90;;;;;;4975931;28;20235;-68
2022/11/30 12:00:28;;;;;;;57.40;23.33;;;7.50;99.90;;;;;;4975904;28;20177;-68
2022/11/30 12:03:09;;;;;;;46.27;22.10;;;7.40;99.90;;;;;;4993312;28;20188;-68
2022/11/30 12:05:36;;;;;;;39.83;22.07;;;7.50;99.90;;;;;;4976052;28;20176;-68
2022/11/30 12:08:11;;;;;;;42.87;23.03;;;7.50;99.90;;;;;;4993349;28;20180;-69
2022/11/30 12:10:59;;;;;;;45.03;22.40;;;7.50;99.90;;;;;;4970002;28;20181;-68
2022/11/30 12:13:38;;;;;;;44.30;21.20;;;7.50;99.90;;;;;;4992962;28;20176;-69
2022/11/30 12:16:19;;;;;;;47.47;22.67;;;7.50;99.90;;;;;;4971138;28;20205;-68
2022/11/30 12:19:09;;;;;;;46.37;22.57;;;7.50;99.90;;;;;;4986948;28;20598;-67
2022/11/30 12:21:56;;;;;;;41.77;24.27;;;7.50;99.90;;;;;;4975514;28;20181;-68
2022/11/30 12:24:21;;;;;;;41.50;22.20;;;7.50;99.90;;;;;;4975751;28;20595;-68
2022/11/30 12:26:57;;;;;;;47.17;23.33;;;7.50;99.90;;;;;;4975097;28;20180;-68
2022/11/30 12:29:33;;;;;;;43.93;24.27;;;7.60;99.90;;;;;;4975161;28;20222;-68
2022/11/30 12:32:31;;;;;;;48.83;23.53;;;7.60;99.90;;;;;;4975335;28;20231;-68
2022/11/30 12:35:16;;;;;;;43.60;22.13;;;7.70;99.90;;;;;;4975003;28;20272;-69
2022/11/30 12:37:57;;;;;;;42.00;24.47;;;7.70;99.90;;;;;;4970890;28;20201;-68
2022/11/30 12:40:51;;;;;;;33.73;22.53;;;7.60;99.90;;;;;;4989362;28;20192;-68
2022/11/30 12:43:36;;;;;;;53.27;24.20;;;7.60;99.90;;;;;;4973724;28;20181;-68
2022/11/30 12:46:21;;;;;;;38.67;23.10;;;7.60;99.90;;;;;;4988543;28;20554;-68
2022/11/30 12:49:18;;;;;;;36.23;20.73;;;7.60;99.90;;;;;;4974638;28;20246;-68
2022/11/30 12:51:58;;;;;;;35.97;20.77;;;7.60;99.90;;;;;;4989469;28;20196;-68
2022/11/30 12:54:26;;;;;;;37.87;20.33;;;7.50;99.90;;;;;;4975256;28;20260;-68